createdAt,value
2023-02-26T00:01:06.934Z,1.1
2023-02-26T00:05:52.214Z,1.1
2023-02-26T00:29:03.173Z,2.4
2023-02-26T00:39:03.904Z,2.2
2023-02-26T00:49:04.576Z,2.1
2023-02-26T00:59:05.352Z,2
2023-02-26T01:09:06.060Z,2.5
2023-02-26T01:19:06.661Z,2.7
2023-02-26T01:29:07.335Z,2.6
2023-02-26T01:39:08.073Z,3.6
2023-02-26T01:49:08.772Z,4.4
2023-02-26T01:59:09.509Z,3.3
2023-02-26T02:09:10.228Z,3.7
2023-02-26T02:19:10.952Z,3.2
2023-02-26T02:29:11.656Z,2.5
2023-02-26T02:39:12.573Z,2.1
2023-02-26T02:49:13.254Z,2.8
2023-02-26T02:59:13.870Z,1.5
2023-02-26T03:09:14.673Z,1.5
2023-02-26T03:19:15.534Z,2.1
2023-02-26T03:29:15.915Z,2.1
2023-02-26T03:39:16.633Z,1.9
2023-02-26T03:49:17.344Z,2.1
2023-02-26T03:59:19.266Z,1.9
2023-02-26T04:09:18.710Z,1.7
2023-02-26T04:19:19.449Z,1.8
2023-02-26T04:29:20.244Z,2.2
2023-02-26T04:39:20.913Z,1.7
2023-02-26T04:49:21.634Z,1.5
2023-02-26T04:59:22.420Z,1.5
2023-02-26T05:09:22.995Z,1.5
2023-02-26T05:19:23.702Z,1.6
2023-02-26T05:29:24.404Z,2
2023-02-26T05:39:25.165Z,2.3
2023-02-26T05:49:25.942Z,1.9
2023-02-26T05:59:26.724Z,2.7
2023-02-26T06:09:27.391Z,2.8
2023-02-26T06:19:28.144Z,2.2
2023-02-26T06:29:28.862Z,2
2023-02-26T06:39:29.598Z,1.7
2023-02-26T06:49:30.378Z,2.1
2023-02-26T06:59:31.218Z,1.6
2023-02-26T07:09:31.919Z,1.8
2023-02-26T07:19:32.594Z,1.8
2023-02-26T07:29:33.371Z,1.9
2023-02-26T07:39:34.078Z,1.6
2023-02-26T07:49:34.806Z,2
2023-02-26T07:59:35.506Z,2
2023-02-26T08:09:36.205Z,2
2023-02-26T08:19:36.906Z,2
2023-02-26T08:29:37.590Z,1.9
2023-02-26T08:39:38.461Z,1.9
2023-02-26T08:49:39.086Z,2
2023-02-26T08:59:40.086Z,1.9
2023-02-26T09:09:40.430Z,1.6
2023-02-26T09:19:41.175Z,1.6
2023-02-26T09:29:43.139Z,1.3
2023-02-26T09:39:43.736Z,1.6
2023-02-26T09:49:43.467Z,1.6
2023-02-26T09:59:45.260Z,1.4
2023-02-26T10:09:44.692Z,1.3
2023-02-26T10:19:45.434Z,1.5
2023-02-26T10:29:46.136Z,1.5
2023-02-26T10:39:46.809Z,1.4
2023-02-26T10:49:47.345Z,1.7
2023-02-26T10:59:48.012Z,1.7
2023-02-26T11:09:48.719Z,1.8
2023-02-26T11:19:50.562Z,1.6
2023-02-26T11:29:49.974Z,1.5
2023-02-26T11:38:26.031Z,1.5
2023-02-26T11:39:51.972Z,1.8
2023-02-26T11:50:01.674Z,1.8
2023-02-26T11:59:53.498Z,1.7
2023-02-26T12:03:25.783Z,1.7
2023-02-26T12:09:52.702Z,1.6
2023-02-26T12:19:53.520Z,1.8
2023-02-26T12:29:54.085Z,1.5
2023-02-26T12:39:56.988Z,1.8
2023-02-26T12:49:55.665Z,1.8
2023-02-26T13:00:09.676Z,1.6
2023-02-26T13:09:56.890Z,1.7
2023-02-26T13:19:58.918Z,1.3
2023-02-26T13:29:58.522Z,1.9
2023-02-26T13:39:59.077Z,1.6
2023-02-26T13:49:59.815Z,1.5
2023-02-26T14:00:00.604Z,1.7
2023-02-26T14:10:01.425Z,1.9
2023-02-26T14:20:02.169Z,1.5
2023-02-26T14:30:02.992Z,1.8
2023-02-26T14:40:03.804Z,2.1
2023-02-26T14:50:04.611Z,1.6
2023-02-26T15:00:05.440Z,1.9
2023-02-26T15:10:06.361Z,2.1
2023-02-26T15:20:07.096Z,1.7
2023-02-26T15:30:08.035Z,1.7
2023-02-26T15:40:08.849Z,2
2023-02-26T15:50:09.633Z,2.6
2023-02-26T16:00:10.623Z,2
2023-02-26T16:10:12.683Z,1.6
2023-02-26T16:20:12.499Z,1.7
2023-02-26T16:30:13.355Z,1.5
2023-02-26T16:40:15.876Z,1.4
2023-02-26T16:50:15.392Z,1.5
2023-02-26T17:00:16.476Z,1.3
2023-02-26T17:10:17.776Z,1.2
2023-02-26T17:20:18.713Z,1.2
2023-02-26T17:30:21.178Z,1.2
2023-02-26T17:40:21.009Z,1.3
2023-02-26T17:50:23.288Z,1.5
2023-02-26T18:00:23.279Z,2
2023-02-26T18:10:25.072Z,2.2
2023-02-26T18:20:25.701Z,2.4
2023-02-26T18:30:26.926Z,2.4
2023-02-26T18:40:28.104Z,2.9
2023-02-26T18:50:29.382Z,2.6
2023-02-26T19:00:30.465Z,2.8
2023-02-26T19:10:31.687Z,2
2023-02-26T19:20:32.780Z,2
2023-02-26T19:30:33.958Z,2.3
2023-02-26T19:40:35.135Z,2.4
2023-02-26T19:50:36.372Z,2.4
2023-02-26T20:00:37.625Z,2.7
2023-02-26T20:10:38.816Z,2.7
2023-02-26T20:20:53.385Z,2.6
2023-02-26T20:30:41.004Z,2.5
2023-02-26T20:40:42.161Z,2.6
2023-02-26T20:50:43.390Z,2.5
2023-02-26T21:00:44.480Z,2.5
2023-02-26T21:10:45.544Z,2.2
2023-02-26T21:20:47.970Z,2.8
2023-02-26T21:30:47.893Z,2.8
2023-02-26T21:40:48.971Z,3.2
2023-02-26T21:50:50.120Z,3.1
2023-02-26T21:58:23.318Z,3.1
2023-02-26T22:00:51.118Z,2.8
2023-02-26T22:10:52.129Z,3.1
2023-02-26T22:20:53.169Z,3
2023-02-26T22:30:54.384Z,3.3
2023-02-26T22:40:55.294Z,3.7
2023-02-26T22:50:56.207Z,5
2023-02-26T23:00:59.647Z,5.5
2023-02-26T23:10:59.488Z,5.6
2023-02-26T23:20:59.022Z,5.9
2023-02-26T23:31:00.023Z,5
2023-02-26T23:41:00.812Z,5.5
2023-02-26T23:51:01.658Z,5.7
